createdAt,value
2018-07-20T00:00:39.510Z,6.80
2018-07-20T00:03:10.503Z,7.60
2018-07-20T00:05:42.087Z,6.75
2018-07-20T00:08:12.856Z,6.20
2018-07-20T00:10:44.327Z,6.25
2018-07-20T00:13:15.883Z,7.03
2018-07-20T00:15:46.917Z,6.60
2018-07-20T00:18:18.389Z,6.40
2018-07-20T00:20:49.829Z,6.80
2018-07-20T00:23:20.625Z,7.15
2018-07-20T00:25:51.513Z,7.28
2018-07-20T00:28:22.592Z,6.80
2018-07-20T00:30:53.490Z,7.00
2018-07-20T00:33:24.262Z,7.40
2018-07-20T00:35:56.348Z,6.53
2018-07-20T00:38:27.359Z,6.47
2018-07-20T00:40:58.732Z,6.92
2018-07-20T00:43:29.765Z,7.13
2018-07-20T00:46:00.547Z,6.50
2018-07-20T00:48:31.355Z,6.70
2018-07-20T00:51:02.382Z,6.42
2018-07-20T00:53:33.857Z,7.33
2018-07-20T00:56:04.642Z,7.30
2018-07-20T00:58:35.761Z,6.70
2018-07-20T01:01:06.843Z,7.03
2018-07-20T01:03:37.922Z,6.87
2018-07-20T01:06:08.764Z,6.57
2018-07-20T01:08:40.933Z,6.80
2018-07-20T01:11:11.852Z,6.60
2018-07-20T01:13:42.746Z,6.83
2018-07-20T01:16:13.937Z,6.40
2018-07-20T01:18:45.752Z,6.80
2018-07-20T01:21:17.762Z,7.22
2018-07-20T01:23:49.043Z,6.10
2018-07-20T01:26:19.924Z,7.17
2018-07-20T01:28:51.089Z,7.43
2018-07-20T01:31:22.353Z,6.70
2018-07-20T01:33:54.732Z,6.80
2018-07-20T01:36:26.212Z,6.90
2018-07-20T01:38:57.581Z,7.50
2018-07-20T01:41:28.426Z,7.60
2018-07-20T01:43:59.572Z,6.90
2018-07-20T01:46:30.336Z,6.10
2018-07-20T01:49:01.071Z,7.10
2018-07-20T01:51:32.176Z,6.90
2018-07-20T01:54:03.320Z,6.72
2018-07-20T01:56:34.198Z,6.72
2018-07-20T01:59:04.978Z,7.10
2018-07-20T02:01:35.789Z,7.33
2018-07-20T02:04:07.289Z,7.72
2018-07-20T02:06:38.356Z,7.42
2018-07-20T02:09:10.928Z,6.80
2018-07-20T02:11:42.439Z,6.80
2018-07-20T02:14:13.347Z,6.42
2018-07-20T02:16:44.250Z,7.08
2018-07-20T02:19:15.681Z,6.40
2018-07-20T02:21:46.491Z,7.30
2018-07-20T02:24:17.435Z,7.05
2018-07-20T02:26:48.504Z,7.33
2018-07-20T02:29:19.297Z,6.78
2018-07-20T02:31:50.183Z,6.60
2018-07-20T02:34:21.437Z,6.85
2018-07-20T02:36:53.798Z,7.65
2018-07-20T02:39:24.647Z,7.15
2018-07-20T02:41:55.437Z,7.30
2018-07-20T02:44:26.497Z,6.87
2018-07-20T02:46:57.325Z,7.30
2018-07-20T02:49:28.142Z,7.90
2018-07-20T02:51:59.702Z,7.30
2018-07-20T02:54:31.536Z,6.85
2018-07-20T02:57:02.247Z,7.30
2018-07-20T02:59:33.521Z,6.50
2018-07-20T03:02:04.693Z,6.83
2018-07-20T03:04:35.733Z,6.97
2018-07-20T03:07:07.337Z,7.25
2018-07-20T03:09:38.252Z,7.37
2018-07-20T03:12:09.160Z,7.62
2018-07-20T03:14:40.714Z,7.47
2018-07-20T03:17:11.583Z,7.30
2018-07-20T03:19:42.502Z,7.25
2018-07-20T03:22:13.575Z,7.10
2018-07-20T03:24:44.707Z,6.87
2018-07-20T03:27:15.513Z,6.90
2018-07-20T03:29:46.554Z,7.05
2018-07-20T03:32:18.978Z,6.30
2018-07-20T03:34:51.670Z,7.00
2018-07-20T03:37:22.965Z,7.10
2018-07-20T03:39:54.440Z,7.20
2018-07-20T03:42:25.146Z,7.25
2018-07-20T03:44:56.584Z,7.10
2018-07-20T03:47:27.305Z,8.10
2018-07-20T03:49:59.218Z,7.75
2018-07-20T03:52:30.067Z,7.30
2018-07-20T03:55:01.355Z,7.47
2018-07-20T03:57:32.459Z,7.33
2018-07-20T04:00:03.686Z,7.92
2018-07-20T04:02:34.704Z,7.35
2018-07-20T04:05:05.849Z,7.20
2018-07-20T04:07:37.254Z,7.95
2018-07-20T04:10:08.375Z,7.10
2018-07-20T04:12:39.301Z,7.12
2018-07-20T04:15:10.994Z,7.17
2018-07-20T04:17:45.416Z,7.37
2018-07-20T04:20:17.338Z,7.25
2018-07-20T04:22:50.728Z,7.62
2018-07-20T04:25:22.303Z,7.40
2018-07-20T04:27:53.501Z,7.70
2018-07-20T04:30:25.252Z,7.30
2018-07-20T04:32:59.462Z,7.30
2018-07-20T04:35:30.746Z,7.45
2018-07-20T04:38:01.659Z,6.80
2018-07-20T04:40:33.474Z,7.70
2018-07-20T04:43:04.699Z,6.85
2018-07-20T04:45:36.386Z,7.45
2018-07-20T04:48:07.658Z,7.60
2018-07-20T04:50:39.940Z,7.60
2018-07-20T04:53:11.772Z,7.30
2018-07-20T04:55:43.473Z,7.70
2018-07-20T04:58:14.882Z,7.20
2018-07-20T05:00:45.785Z,7.30
2018-07-20T05:03:16.829Z,6.80
2018-07-20T05:05:51.531Z,6.55
2018-07-20T05:08:23.461Z,6.50
2018-07-20T05:10:54.636Z,6.47
2018-07-20T05:13:27.200Z,7.35
2018-07-20T05:16:03.870Z,6.70
2018-07-20T05:18:35.353Z,6.60
2018-07-20T05:21:08.397Z,7.35
2018-07-20T05:23:39.276Z,6.57
2018-07-20T05:26:14.263Z,7.00
2018-07-20T05:28:45.043Z,6.92
2018-07-20T05:31:16.464Z,7.40
2018-07-20T05:37:21.902Z,7.37
2018-07-20T05:39:55.409Z,8.60
2018-07-20T05:42:29.706Z,8.28
2018-07-20T05:45:02.900Z,8.88
2018-07-20T05:47:35.290Z,7.30
2018-07-20T05:50:07.717Z,7.80
2018-07-20T05:52:39.031Z,8.40
2018-07-20T05:55:10.449Z,8.05
2018-07-20T05:57:41.234Z,8.03
2018-07-20T06:00:12.467Z,7.70
2018-07-20T06:02:44.046Z,8.03
2018-07-20T06:05:14.897Z,7.75
2018-07-20T06:07:52.865Z,8.20
2018-07-20T06:10:25.869Z,8.03
2018-07-20T06:13:20.287Z,8.50
2018-07-20T06:15:56.204Z,7.10
2018-07-20T06:19:07.973Z,6.90
2018-07-20T06:21:49.605Z,7.80
2018-07-20T06:24:21.342Z,7.60
2018-07-20T06:26:53.404Z,6.65
2018-07-20T06:29:57.066Z,6.45
2018-07-20T06:32:46.442Z,6.17
2018-07-20T06:35:22.466Z,6.80
2018-07-20T06:37:56.373Z,6.80
2018-07-20T06:40:34.325Z,7.50
2018-07-20T06:43:07.255Z,6.90
2018-07-20T06:46:13.547Z,6.80
2018-07-20T06:48:46.143Z,7.37
2018-07-20T06:51:28.206Z,7.97
2018-07-20T06:54:08.187Z,6.80
2018-07-20T06:56:42.231Z,6.70
2018-07-20T06:59:13.606Z,6.90
2018-07-20T07:01:49.263Z,7.35
2018-07-20T07:04:25.729Z,7.30
2018-07-20T07:07:18.437Z,6.40
2018-07-20T07:09:58.470Z,6.00
2018-07-20T07:15:37.486Z,6.20
2018-07-20T07:18:08.611Z,5.90
2018-07-20T07:20:41.062Z,6.25
2018-07-20T07:23:14.392Z,6.10
2018-07-20T07:25:45.513Z,6.15
2018-07-20T07:28:16.552Z,5.80
2018-07-20T07:30:47.922Z,6.10
2018-07-20T07:33:19.509Z,5.67
2018-07-20T07:35:50.690Z,5.63
2018-07-20T07:38:22.203Z,6.60
2018-07-20T07:40:54.625Z,6.42
2018-07-20T07:43:25.493Z,6.40
2018-07-20T07:49:32.703Z,6.30
2018-07-20T07:52:03.810Z,5.40
2018-07-20T07:54:37.783Z,5.35
2018-07-20T07:57:51.047Z,5.90
2018-07-20T08:00:23.865Z,5.03
2018-07-20T08:02:56.244Z,5.60
2018-07-20T08:05:45.808Z,5.70
2018-07-20T08:08:19.830Z,5.45
2018-07-20T08:10:54.745Z,5.53
2018-07-20T08:13:26.721Z,4.70
2018-07-20T08:16:00.981Z,5.87
2018-07-20T08:18:38.248Z,4.80
2018-07-20T08:21:26.993Z,5.50
2018-07-20T08:24:07.335Z,6.40
2018-07-20T08:26:45.449Z,5.65
2018-07-20T08:29:18.719Z,5.42
2018-07-20T08:35:25.538Z,5.92
2018-07-20T08:38:09.832Z,6.28
2018-07-20T08:44:26.799Z,6.17
2018-07-20T08:47:04.644Z,5.15
2018-07-20T08:49:42.947Z,5.73
2018-07-20T08:53:10.474Z,5.37
2018-07-20T08:55:44.084Z,5.10
2018-07-20T08:58:55.641Z,4.78
2018-07-20T09:01:27.443Z,5.47
2018-07-20T09:03:59.046Z,73.60
2018-07-20T09:06:32.376Z,5.20
2018-07-20T09:12:37.809Z,5.15
2018-07-20T09:15:19.649Z,4.78
2018-07-20T09:17:53.433Z,5.70
2018-07-20T09:20:27.093Z,5.80
2018-07-20T09:22:59.951Z,12.00
2018-07-20T09:25:32.611Z,430.30
2018-07-20T09:28:04.383Z,66.00
2018-07-20T09:30:37.971Z,58.83
2018-07-20T09:33:11.965Z,5.90
2018-07-20T09:35:43.842Z,5.20
2018-07-20T09:38:17.070Z,5.50
2018-07-20T09:41:17.965Z,6.05
2018-07-20T09:43:57.357Z,5.55
2018-07-20T09:46:51.682Z,6.10
2018-07-20T09:49:26.469Z,4.58
2018-07-20T09:52:10.513Z,5.53
2018-07-20T09:54:57.812Z,5.37
2018-07-20T09:57:36.102Z,6.87
2018-07-20T10:00:51.997Z,5.20
2018-07-20T10:03:25.959Z,6.50
2018-07-20T10:09:35.329Z,6.65
2018-07-20T10:12:10.205Z,536.45
2018-07-20T10:15:06.261Z,4.78
2018-07-20T10:17:40.697Z,5.65
2018-07-20T10:20:12.695Z,128.00
2018-07-20T10:22:46.646Z,17.80
2018-07-20T10:25:21.909Z,11.50
2018-07-20T10:27:53.573Z,18.90
2018-07-20T10:30:29.706Z,20.40
2018-07-20T10:33:03.675Z,15.55
2018-07-20T10:35:34.697Z,482.30
2018-07-20T10:38:07.454Z,411.43
2018-07-20T10:40:48.160Z,97.20
2018-07-20T10:43:21.334Z,260.88
2018-07-20T10:45:55.732Z,37.17
2018-07-20T10:48:29.409Z,24.23
2018-07-20T10:51:02.291Z,236.92
2018-07-20T10:53:35.472Z,53.75
2018-07-20T10:56:08.637Z,108.03
2018-07-20T10:58:42.420Z,488.05
2018-07-20T11:01:15.204Z,5.60
2018-07-20T11:03:47.137Z,4.80
2018-07-20T11:06:24.649Z,4.50
2018-07-20T11:08:57.221Z,5.15
2018-07-20T11:11:30.140Z,5.37
2018-07-20T11:14:02.172Z,5.35
2018-07-20T11:16:38.625Z,5.80
2018-07-20T11:19:10.813Z,5.90
2018-07-20T11:21:44.677Z,5.08
2018-07-20T11:24:18.094Z,8.97
2018-07-20T11:26:54.155Z,8.70
2018-07-20T11:29:30.403Z,8.10
2018-07-20T11:32:35.869Z,5.75
2018-07-20T11:35:09.626Z,5.60
2018-07-20T11:37:43.829Z,5.45
2018-07-20T11:40:22.538Z,7.92
2018-07-20T11:43:27.739Z,16.82
2018-07-20T11:46:16.907Z,26.07
2018-07-20T11:48:54.246Z,25.20
2018-07-20T11:51:29.791Z,119.65
2018-07-20T11:54:01.786Z,999.90
2018-07-20T11:56:36.016Z,922.67
2018-07-20T11:59:07.898Z,302.00
2018-07-20T12:01:42.059Z,250.67
2018-07-20T12:04:16.289Z,285.17
2018-07-20T12:06:50.006Z,323.98
2018-07-20T12:09:26.494Z,415.17
2018-07-20T12:11:58.717Z,520.33
2018-07-20T12:14:31.083Z,559.80
2018-07-20T12:17:02.069Z,603.05
2018-07-20T12:19:33.746Z,811.95
2018-07-20T12:22:06.704Z,534.00
2018-07-20T12:24:39.287Z,156.72
2018-07-20T12:27:13.266Z,158.00
2018-07-20T12:29:44.509Z,227.05
2018-07-20T12:32:16.236Z,289.48
2018-07-20T12:34:47.999Z,695.88
2018-07-20T12:37:19.501Z,91.65
2018-07-20T12:39:50.921Z,54.35
2018-07-20T12:42:24.189Z,57.25
2018-07-20T12:44:55.949Z,36.35
2018-07-20T12:47:28.385Z,39.40
2018-07-20T12:50:03.327Z,21.20
2018-07-20T12:52:43.255Z,12.80
2018-07-20T12:55:19.042Z,9.10
2018-07-20T12:58:04.089Z,12.18
2018-07-20T13:00:42.924Z,11.85
2018-07-20T13:03:22.743Z,13.03
2018-07-20T13:06:00.103Z,12.73
2018-07-20T13:08:42.347Z,11.65
2018-07-20T13:11:34.269Z,13.00
2018-07-20T13:14:06.548Z,13.60
2018-07-20T13:16:39.850Z,9.05
2018-07-20T13:19:12.427Z,8.68
2018-07-20T13:21:47.652Z,11.05
2018-07-20T13:24:19.732Z,14.55
2018-07-20T13:26:51.523Z,28.03
2018-07-20T13:29:24.306Z,12.20
2018-07-20T13:32:05.332Z,10.10
2018-07-20T13:35:21.244Z,8.70
2018-07-20T13:37:54.959Z,9.28
2018-07-20T13:40:29.666Z,10.38
2018-07-20T13:43:02.368Z,8.93
2018-07-20T13:45:36.827Z,10.57
2018-07-20T13:48:09.689Z,17.43
2018-07-20T13:50:40.744Z,8.73
2018-07-20T13:53:50.247Z,10.60
2018-07-20T13:56:25.647Z,14.85
2018-07-20T13:58:57.573Z,14.90
2018-07-20T14:01:29.458Z,217.93
2018-07-20T14:04:13.131Z,999.90
2018-07-20T14:06:48.348Z,999.90
2018-07-20T14:09:22.582Z,775.33
2018-07-20T14:11:54.113Z,118.17
2018-07-20T14:14:26.211Z,54.67
2018-07-20T14:16:58.218Z,113.00
2018-07-20T14:19:30.134Z,76.35
2018-07-20T14:22:28.832Z,111.97
2018-07-20T14:25:20.141Z,279.23
2018-07-20T14:31:31.361Z,999.90
2018-07-20T14:34:06.843Z,999.90
2018-07-20T14:36:38.920Z,999.90
2018-07-20T14:39:12.961Z,999.90
2018-07-20T14:41:45.805Z,999.90
2018-07-20T14:44:22.973Z,999.90
2018-07-20T14:46:56.632Z,999.90
2018-07-20T14:49:32.549Z,999.90
2018-07-20T14:52:10.316Z,999.90
2018-07-20T14:54:53.539Z,999.90
2018-07-20T14:57:25.731Z,999.90
2018-07-20T15:02:58.757Z,999.90
2018-07-20T15:05:30.951Z,999.90
2018-07-20T15:08:03.990Z,999.90
2018-07-20T15:10:35.713Z,999.90
2018-07-20T15:13:07.128Z,999.90
2018-07-20T15:15:37.876Z,999.90
2018-07-20T15:18:09.517Z,999.90
2018-07-20T15:20:41.472Z,999.90
2018-07-20T15:23:16.334Z,999.90
2018-07-20T15:25:48.275Z,999.90
2018-07-20T15:28:24.518Z,999.90
2018-07-20T15:31:02.128Z,999.90
2018-07-20T15:33:44.731Z,999.90
2018-07-20T15:36:17.408Z,999.90
2018-07-20T15:38:51.176Z,999.90
2018-07-20T15:41:25.163Z,999.90
2018-07-20T15:43:58.088Z,999.90
2018-07-20T15:46:31.368Z,999.90
2018-07-20T15:49:04.675Z,999.90
2018-07-20T15:53:35.205Z,999.90
2018-07-20T15:54:12.515Z,999.90
2018-07-20T15:56:49.848Z,999.90
2018-07-20T16:02:57.959Z,999.90
2018-07-20T16:05:39.461Z,999.90
2018-07-20T16:08:18.380Z,999.90
2018-07-20T16:10:58.766Z,999.90
2018-07-20T16:13:37.515Z,999.90
2018-07-20T16:16:16.394Z,999.90
2018-07-20T16:18:54.889Z,999.90
2018-07-20T16:21:40.299Z,999.90
2018-07-20T16:24:15.186Z,999.90
2018-07-20T16:32:59.201Z,999.90
2018-07-20T16:35:36.503Z,999.90
2018-07-20T16:38:23.317Z,999.90
2018-07-20T16:41:02.758Z,999.90
2018-07-20T16:43:39.711Z,999.90
2018-07-20T16:46:24.847Z,999.90
2018-07-20T16:49:17.606Z,999.90
2018-07-20T16:51:59.809Z,999.90
2018-07-20T16:54:45.131Z,999.90
2018-07-20T16:57:41.100Z,999.90
2018-07-20T17:00:23.591Z,999.90
2018-07-20T17:03:10.343Z,999.90
2018-07-20T17:05:54.516Z,999.90
2018-07-20T17:08:34.472Z,999.90
2018-07-20T17:11:11.601Z,999.90
2018-07-20T17:13:51.674Z,999.90
2018-07-20T17:16:33.852Z,999.90
2018-07-20T17:19:12.179Z,999.90
2018-07-20T17:21:54.420Z,999.90
2018-07-20T17:24:34.687Z,999.90
2018-07-20T17:27:37.686Z,999.90
2018-07-20T17:30:21.384Z,999.90
2018-07-20T17:32:57.487Z,999.90
2018-07-20T17:35:38.507Z,999.90
2018-07-20T17:38:22.798Z,999.90
2018-07-20T17:41:09.725Z,999.90
2018-07-20T17:43:48.350Z,999.90
2018-07-20T17:46:26.594Z,999.90
2018-07-20T17:49:09.158Z,999.90
2018-07-20T17:51:53.146Z,999.90
2018-07-20T17:54:47.849Z,999.90
2018-07-20T17:57:26.812Z,999.90
2018-07-20T18:00:10.470Z,999.90
2018-07-20T18:02:48.726Z,999.90
2018-07-20T18:05:46.133Z,999.90
2018-07-20T18:09:03.293Z,999.90
2018-07-20T18:14:38.622Z,999.90
2018-07-20T18:17:15.681Z,999.90
2018-07-20T18:19:54.106Z,999.90
2018-07-20T18:22:50.009Z,999.90
2018-07-20T18:25:33.675Z,999.90
2018-07-20T18:28:15.106Z,999.90
2018-07-20T18:30:59.142Z,999.90
